sensor_id;sensor_type;location;lat;lon;timestamp;pressure;altitude;pressure_sealevel;temperature;humidity
47761;BME280;33524;55.434;38.520;2023-09-19T00:00:39;100840.63;;;6.68;100.00
47761;BME280;33524;55.434;38.520;2023-09-19T00:03:08;100847.19;;;6.77;100.00
47761;BME280;33524;55.434;38.520;2023-09-19T00:05:36;100845.09;;;6.83;100.00
47761;BME280;33524;55.434;38.520;2023-09-19T00:10:33;100840.41;;;6.90;100.00
47761;BME280;33524;55.434;38.520;2023-09-19T00:13:04;100850.03;;;6.90;100.00
47761;BME280;33524;55.434;38.520;2023-09-19T00:15:41;100842.03;;;6.93;100.00
47761;BME280;33524;55.434;38.520;2023-09-19T00:18:09;100837.19;;;6.85;100.00
47761;BME280;33524;55.434;38.520;2023-09-19T00:20:38;100836.87;;;6.91;100.00
47761;BME280;33524;55.434;38.520;2023-09-19T00:23:06;100847.31;;;6.74;100.00
47761;BME280;33524;55.434;38.520;2023-09-19T00:25:36;100846.34;;;6.94;100.00
47761;BME280;33524;55.434;38.520;2023-09-19T00:28:04;100842.62;;;6.98;97.88
47761;BME280;33524;55.434;38.520;2023-09-19T00:30:34;100834.41;;;6.71;98.72
47761;BME280;33524;55.434;38.520;2023-09-19T00:33:03;100835.00;;;6.58;100.00
47761;BME280;33524;55.434;38.520;2023-09-19T00:35:34;100837.91;;;6.35;100.00
47761;BME280;33524;55.434;38.520;2023-09-19T00:38:02;100840.34;;;6.38;100.00
47761;BME280;33524;55.434;38.520;2023-09-19T00:43:01;100848.72;;;6.44;100.00
47761;BME280;33524;55.434;38.520;2023-09-19T00:45:29;100841.41;;;6.34;100.00
47761;BME280;33524;55.434;38.520;2023-09-19T00:47:57;100841.56;;;6.31;99.77
47761;BME280;33524;55.434;38.520;2023-09-19T00:50:32;100848.06;;;6.22;100.00
47761;BME280;33524;55.434;38.520;2023-09-19T00:53:01;100842.62;;;6.07;100.00
47761;BME280;33524;55.434;38.520;2023-09-19T00:55:29;100844.28;;;6.10;100.00
47761;BME280;33524;55.434;38.520;2023-09-19T00:58:00;100831.28;;;6.09;100.00
47761;BME280;33524;55.434;38.520;2023-09-19T01:00:29;100852.12;;;6.10;100.00
47761;BME280;33524;55.434;38.520;2023-09-19T01:02:57;100853.28;;;6.03;100.00
47761;BME280;33524;55.434;38.520;2023-09-19T01:05:25;100856.47;;;6.10;100.00
47761;BME280;33524;55.434;38.520;2023-09-19T01:07:52;100844.97;;;5.95;100.00
47761;BME280;33524;55.434;38.520;2023-09-19T01:10:22;100854.78;;;6.09;100.00
47761;BME280;33524;55.434;38.520;2023-09-19T01:15:50;100848.41;;;5.95;100.00
47761;BME280;33524;55.434;38.520;2023-09-19T01:18:40;100850.59;;;5.85;100.00
47761;BME280;33524;55.434;38.520;2023-09-19T01:29:31;100845.94;;;6.11;100.00
47761;BME280;33524;55.434;38.520;2023-09-19T01:32:05;100843.78;;;6.21;100.00
47761;BME280;33524;55.434;38.520;2023-09-19T01:34:53;100841.28;;;6.18;100.00
47761;BME280;33524;55.434;38.520;2023-09-19T01:40:05;100839.16;;;6.45;100.00
47761;BME280;33524;55.434;38.520;2023-09-19T01:52:11;100834.06;;;6.59;100.00
47761;BME280;33524;55.434;38.520;2023-09-19T01:54:52;100827.63;;;6.66;100.00
47761;BME280;33524;55.434;38.520;2023-09-19T01:58:25;100820.25;;;6.75;100.00
47761;BME280;33524;55.434;38.520;2023-09-19T02:00:46;100821.94;;;6.76;100.00
47761;BME280;33524;55.434;38.520;2023-09-19T02:03:16;100826.19;;;6.78;100.00
47761;BME280;33524;55.434;38.520;2023-09-19T02:05:51;100829.94;;;6.90;100.00
47761;BME280;33524;55.434;38.520;2023-09-19T02:08:22;100832.50;;;6.92;100.00
47761;BME280;33524;55.434;38.520;2023-09-19T02:10:52;100826.25;;;6.94;100.00
47761;BME280;33524;55.434;38.520;2023-09-19T02:13:21;100816.50;;;6.98;100.00
47761;BME280;33524;55.434;38.520;2023-09-19T02:15:53;100820.13;;;6.95;100.00
47761;BME280;33524;55.434;38.520;2023-09-19T02:18:21;100825.19;;;6.98;100.00
47761;BME280;33524;55.434;38.520;2023-09-19T02:20:50;100824.09;;;7.02;100.00
47761;BME280;33524;55.434;38.520;2023-09-19T02:23:19;100827.47;;;7.04;100.00
47761;BME280;33524;55.434;38.520;2023-09-19T02:25:57;100816.25;;;7.02;100.00
47761;BME280;33524;55.434;38.520;2023-09-19T02:28:34;100823.66;;;7.12;100.00
47761;BME280;33524;55.434;38.520;2023-09-19T02:31:03;100826.84;;;7.17;100.00
47761;BME280;33524;55.434;38.520;2023-09-19T02:33:34;100830.34;;;7.17;100.00
47761;BME280;33524;55.434;38.520;2023-09-19T02:36:01;100821.31;;;7.23;100.00
47761;BME280;33524;55.434;38.520;2023-09-19T02:38:33;100825.62;;;7.24;100.00
47761;BME280;33524;55.434;38.520;2023-09-19T02:41:01;100835.69;;;7.32;100.00
47761;BME280;33524;55.434;38.520;2023-09-19T02:43:30;100829.28;;;7.37;100.00
47761;BME280;33524;55.434;38.520;2023-09-19T02:45:58;100827.28;;;7.42;100.00
47761;BME280;33524;55.434;38.520;2023-09-19T02:48:27;100808.09;;;7.42;100.00
47761;BME280;33524;55.434;38.520;2023-09-19T02:50:54;100828.66;;;7.50;100.00
47761;BME280;33524;55.434;38.520;2023-09-19T02:53:23;100827.63;;;7.52;100.00
47761;BME280;33524;55.434;38.520;2023-09-19T02:55:52;100815.50;;;7.51;100.00
47761;BME280;33524;55.434;38.520;2023-09-19T03:00:48;100823.09;;;7.56;100.00
47761;BME280;33524;55.434;38.520;2023-09-19T03:03:18;100821.22;;;7.58;100.00
47761;BME280;33524;55.434;38.520;2023-09-19T03:05:46;100821.75;;;7.64;100.00
47761;BME280;33524;55.434;38.520;2023-09-19T03:08:17;100824.16;;;7.69;100.00
47761;BME280;33524;55.434;38.520;2023-09-19T03:10:46;100822.09;;;7.74;100.00
47761;BME280;33524;55.434;38.520;2023-09-19T03:13:17;100820.56;;;7.70;100.00
47761;BME280;33524;55.434;38.520;2023-09-19T03:15:45;100815.84;;;7.61;100.00
47761;BME280;33524;55.434;38.520;2023-09-19T03:18:19;100823.84;;;7.58;100.00
47761;BME280;33524;55.434;38.520;2023-09-19T03:20:54;100816.31;;;7.52;100.00
47761;BME280;33524;55.434;38.520;2023-09-19T03:23:23;100815.81;;;7.45;100.00
47761;BME280;33524;55.434;38.520;2023-09-19T03:25:52;100809.75;;;7.60;96.94
47761;BME280;33524;55.434;38.520;2023-09-19T03:28:20;100814.53;;;7.85;89.59
47761;BME280;33524;55.434;38.520;2023-09-19T03:31:02;100808.59;;;7.66;94.63
47761;BME280;33524;55.434;38.520;2023-09-19T03:33:32;100816.84;;;7.58;94.42
47761;BME280;33524;55.434;38.520;2023-09-19T03:36:02;100820.91;;;7.64;92.74
47761;BME280;33524;55.434;38.520;2023-09-19T03:38:35;100811.78;;;7.55;92.88
47761;BME280;33524;55.434;38.520;2023-09-19T03:41:03;100811.13;;;7.67;89.96
47761;BME280;33524;55.434;38.520;2023-09-19T03:43:33;100815.97;;;7.75;88.79
47761;BME280;33524;55.434;38.520;2023-09-19T03:46:02;100810.94;;;7.71;89.47
47761;BME280;33524;55.434;38.520;2023-09-19T03:48:33;100813.50;;;7.72;90.09
47761;BME280;33524;55.434;38.520;2023-09-19T03:51:02;100815.12;;;7.91;86.85
47761;BME280;33524;55.434;38.520;2023-09-19T03:53:31;100815.00;;;7.76;89.34
47761;BME280;33524;55.434;38.520;2023-09-19T03:55:59;100812.06;;;7.82;89.03
47761;BME280;33524;55.434;38.520;2023-09-19T03:58:29;100816.91;;;7.90;88.16
47761;BME280;33524;55.434;38.520;2023-09-19T04:00:58;100816.37;;;7.99;87.67
47761;BME280;33524;55.434;38.520;2023-09-19T04:03:27;100828.22;;;8.06;86.14
47761;BME280;33524;55.434;38.520;2023-09-19T04:06:03;100828.72;;;8.29;83.96
47761;BME280;33524;55.434;38.520;2023-09-19T04:08:32;100813.66;;;8.33;83.28
47761;BME280;33524;55.434;38.520;2023-09-19T04:11:00;100830.72;;;8.40;83.36
47761;BME280;33524;55.434;38.520;2023-09-19T04:13:28;100815.78;;;8.42;84.62
47761;BME280;33524;55.434;38.520;2023-09-19T04:15:57;100816.72;;;8.41;85.00
47761;BME280;33524;55.434;38.520;2023-09-19T04:18:25;100819.50;;;8.38;90.41
47761;BME280;33524;55.434;38.520;2023-09-19T04:20:53;100824.16;;;8.48;88.26
47761;BME280;33524;55.434;38.520;2023-09-19T04:25:49;100826.13;;;8.75;92.33
47761;BME280;33524;55.434;38.520;2023-09-19T04:28:18;100828.94;;;8.86;90.48
47761;BME280;33524;55.434;38.520;2023-09-19T04:30:46;100798.75;;;8.95;91.92
47761;BME280;33524;55.434;38.520;2023-09-19T04:33:14;100816.25;;;9.09;90.63
47761;BME280;33524;55.434;38.520;2023-09-19T04:35:42;100803.91;;;9.25;96.11
47761;BME280;33524;55.434;38.520;2023-09-19T04:38:11;100813.37;;;9.28;100.00
47761;BME280;33524;55.434;38.520;2023-09-19T04:40:39;100824.75;;;9.28;100.00
47761;BME280;33524;55.434;38.520;2023-09-19T04:43:07;100815.06;;;9.29;100.00
47761;BME280;33524;55.434;38.520;2023-09-19T04:45:38;100821.25;;;9.28;100.00
47761;BME280;33524;55.434;38.520;2023-09-19T04:48:07;100821.53;;;9.38;100.00
47761;BME280;33524;55.434;38.520;2023-09-19T04:50:36;100819.38;;;9.30;91.91
47761;BME280;33524;55.434;38.520;2023-09-19T04:53:04;100812.25;;;9.46;91.38
47761;BME280;33524;55.434;38.520;2023-09-19T04:55:33;100788.47;;;9.49;97.59
47761;BME280;33524;55.434;38.520;2023-09-19T04:57:59;100799.34;;;9.58;100.00
47761;BME280;33524;55.434;38.520;2023-09-19T05:00:27;100799.25;;;9.59;86.46
47761;BME280;33524;55.434;38.520;2023-09-19T05:02:58;100785.81;;;9.64;96.02
47761;BME280;33524;55.434;38.520;2023-09-19T05:05:26;100784.41;;;9.73;86.11
47761;BME280;33524;55.434;38.520;2023-09-19T05:07:56;100777.31;;;9.87;95.25
47761;BME280;33524;55.434;38.520;2023-09-19T05:10:24;100774.97;;;9.97;90.42
47761;BME280;33524;55.434;38.520;2023-09-19T05:12:55;100776.41;;;10.16;90.91
47761;BME280;33524;55.434;38.520;2023-09-19T05:15:24;100789.59;;;10.28;83.86
47761;BME280;33524;55.434;38.520;2023-09-19T05:17:52;100791.81;;;10.49;86.07
47761;BME280;33524;55.434;38.520;2023-09-19T05:20:25;100791.19;;;10.58;85.53
47761;BME280;33524;55.434;38.520;2023-09-19T05:23:02;100783.84;;;10.76;91.30
47761;BME280;33524;55.434;38.520;2023-09-19T05:25:31;100792.09;;;10.84;83.58
47761;BME280;33524;55.434;38.520;2023-09-19T05:28:00;100787.78;;;10.96;80.81
47761;BME280;33524;55.434;38.520;2023-09-19T05:30:32;100784.31;;;11.08;80.34
47761;BME280;33524;55.434;38.520;2023-09-19T05:33:00;100789.16;;;11.15;81.88
47761;BME280;33524;55.434;38.520;2023-09-19T05:35:30;100789.78;;;11.18;81.89
47761;BME280;33524;55.434;38.520;2023-09-19T05:37:59;100786.63;;;11.26;83.73
47761;BME280;33524;55.434;38.520;2023-09-19T05:40:27;100782.22;;;11.39;82.68
47761;BME280;33524;55.434;38.520;2023-09-19T05:42:55;100789.16;;;11.40;87.24
47761;BME280;33524;55.434;38.520;2023-09-19T05:45:23;100791.44;;;11.45;83.65
47761;BME280;33524;55.434;38.520;2023-09-19T05:47:52;100784.19;;;11.48;83.26
47761;BME280;33524;55.434;38.520;2023-09-19T05:50:29;100777.62;;;11.67;80.05
47761;BME280;33524;55.434;38.520;2023-09-19T05:52:57;100790.66;;;11.81;80.96
47761;BME280;33524;55.434;38.520;2023-09-19T05:55:25;100790.22;;;11.87;79.05
47761;BME280;33524;55.434;38.520;2023-09-19T05:57:54;100790.31;;;11.86;83.92
47761;BME280;33524;55.434;38.520;2023-09-19T06:00:22;100782.25;;;11.76;90.04
47761;BME280;33524;55.434;38.520;2023-09-19T06:02:58;100791.44;;;11.70;89.39
47761;BME280;33524;55.434;38.520;2023-09-19T06:05:26;100794.56;;;11.88;79.93
47761;BME280;33524;55.434;38.520;2023-09-19T06:07:56;100783.41;;;12.09;78.27
47761;BME280;33524;55.434;38.520;2023-09-19T06:10:30;100773.75;;;12.09;77.88
47761;BME280;33524;55.434;38.520;2023-09-19T06:13:02;100774.34;;;12.13;77.70
47761;BME280;33524;55.434;38.520;2023-09-19T06:15:32;100773.78;;;12.21;77.50
47761;BME280;33524;55.434;38.520;2023-09-19T06:18:02;100776.25;;;12.35;76.33
47761;BME280;33524;55.434;38.520;2023-09-19T06:20:33;100771.31;;;12.30;78.31
47761;BME280;33524;55.434;38.520;2023-09-19T06:23:02;100776.03;;;12.38;80.28
47761;BME280;33524;55.434;38.520;2023-09-19T06:25:30;100776.16;;;12.48;77.98
47761;BME280;33524;55.434;38.520;2023-09-19T06:27:59;100765.94;;;12.67;75.94
47761;BME280;33524;55.434;38.520;2023-09-19T06:30:28;100770.03;;;12.83;75.36
47761;BME280;33524;55.434;38.520;2023-09-19T06:32:57;100768.78;;;13.11;73.83
47761;BME280;33524;55.434;38.520;2023-09-19T06:35:26;100771.09;;;13.38;72.85
47761;BME280;33524;55.434;38.520;2023-09-19T06:37:55;100757.53;;;13.31;76.32
47761;BME280;33524;55.434;38.520;2023-09-19T06:40:26;100746.00;;;13.55;72.40
47761;BME280;33524;55.434;38.520;2023-09-19T06:43:00;100748.38;;;13.69;72.45
47761;BME280;33524;55.434;38.520;2023-09-19T06:45:32;100748.34;;;13.92;71.40
47761;BME280;33524;55.434;38.520;2023-09-19T06:48:00;100748.09;;;14.27;70.84
47761;BME280;33524;55.434;38.520;2023-09-19T06:50:30;100746.56;;;14.46;70.40
47761;BME280;33524;55.434;38.520;2023-09-19T06:52:59;100742.69;;;14.82;69.28
47761;BME280;33524;55.434;38.520;2023-09-19T06:55:28;100745.53;;;15.00;69.28
47761;BME280;33524;55.434;38.520;2023-09-19T06:58:00;100742.84;;;15.11;68.82
47761;BME280;33524;55.434;38.520;2023-09-19T07:00:31;100739.69;;;15.27;68.34
47761;BME280;33524;55.434;38.520;2023-09-19T07:03:08;100735.41;;;15.36;69.81
47761;BME280;33524;55.434;38.520;2023-09-19T07:05:40;100738.97;;;15.66;67.81
47761;BME280;33524;55.434;38.520;2023-09-19T07:08:09;100742.41;;;15.78;67.67
47761;BME280;33524;55.434;38.520;2023-09-19T07:10:42;100735.03;;;16.01;67.15
47761;BME280;33524;55.434;38.520;2023-09-19T07:13:17;100736.41;;;15.95;68.19
47761;BME280;33524;55.434;38.520;2023-09-19T07:15:46;100743.28;;;16.17;67.06
47761;BME280;33524;55.434;38.520;2023-09-19T07:18:18;100730.56;;;16.21;66.92
47761;BME280;33524;55.434;38.520;2023-09-19T07:20:48;100735.03;;;16.20;66.93
47761;BME280;33524;55.434;38.520;2023-09-19T07:23:21;100735.59;;;16.24;67.09
47761;BME280;33524;55.434;38.520;2023-09-19T07:25:51;100734.34;;;16.08;69.46
47761;BME280;33524;55.434;38.520;2023-09-19T07:28:18;100741.19;;;16.21;67.88
47761;BME280;33524;55.434;38.520;2023-09-19T07:30:46;100738.94;;;16.36;67.20
47761;BME280;33524;55.434;38.520;2023-09-19T07:33:14;100740.62;;;16.37;66.98
47761;BME280;33524;55.434;38.520;2023-09-19T07:35:48;100728.28;;;16.65;66.30
47761;BME280;33524;55.434;38.520;2023-09-19T07:38:17;100737.63;;;16.98;65.66
47761;BME280;33524;55.434;38.520;2023-09-19T07:40:45;100723.03;;;17.12;65.95
47761;BME280;33524;55.434;38.520;2023-09-19T07:43:17;100741.53;;;17.31;65.09
47761;BME280;33524;55.434;38.520;2023-09-19T07:45:47;100737.84;;;17.42;64.59
47761;BME280;33524;55.434;38.520;2023-09-19T07:48:16;100725.91;;;17.56;64.61
47761;BME280;33524;55.434;38.520;2023-09-19T07:50:45;100720.53;;;17.38;65.68
47761;BME280;33524;55.434;38.520;2023-09-19T07:53:13;100723.59;;;17.43;65.47
47761;BME280;33524;55.434;38.520;2023-09-19T07:55:43;100726.31;;;17.61;64.98
47761;BME280;33524;55.434;38.520;2023-09-19T07:58:16;100717.16;;;17.91;64.07
47761;BME280;33524;55.434;38.520;2023-09-19T08:00:44;100720.81;;;17.63;64.99
47761;BME280;33524;55.434;38.520;2023-09-19T08:03:19;100715.31;;;17.92;64.59
47761;BME280;33524;55.434;38.520;2023-09-19T08:05:48;100708.88;;;18.12;63.96
47761;BME280;33524;55.434;38.520;2023-09-19T08:08:17;100700.19;;;18.10;64.17
47761;BME280;33524;55.434;38.520;2023-09-19T08:10:45;100691.50;;;18.70;62.65
47761;BME280;33524;55.434;38.520;2023-09-19T08:13:20;100696.03;;;18.96;61.84
47761;BME280;33524;55.434;38.520;2023-09-19T08:15:50;100690.69;;;18.96;61.57
47761;BME280;33524;55.434;38.520;2023-09-19T08:18:19;100698.78;;;19.12;61.59
47761;BME280;33524;55.434;38.520;2023-09-19T08:20:52;100695.47;;;18.66;62.62
47761;BME280;33524;55.434;38.520;2023-09-19T08:23:20;100696.22;;;19.03;62.12
47761;BME280;33524;55.434;38.520;2023-09-19T08:25:49;100686.06;;;19.49;60.75
47761;BME280;33524;55.434;38.520;2023-09-19T08:28:19;100689.69;;;20.07;59.89
47761;BME280;33524;55.434;38.520;2023-09-19T08:30:52;100692.03;;;20.51;58.60
47761;BME280;33524;55.434;38.520;2023-09-19T08:33:23;100685.00;;;20.83;57.78
47761;BME280;33524;55.434;38.520;2023-09-19T08:35:52;100684.50;;;20.46;58.00
47761;BME280;33524;55.434;38.520;2023-09-19T08:38:22;100689.72;;;20.64;58.53
47761;BME280;33524;55.434;38.520;2023-09-19T08:40:52;100683.88;;;20.20;58.39
47761;BME280;33524;55.434;38.520;2023-09-19T08:43:21;100683.38;;;20.32;58.46
47761;BME280;33524;55.434;38.520;2023-09-19T08:45:49;100683.69;;;20.62;58.22
47761;BME280;33524;55.434;38.520;2023-09-19T08:48:29;100684.56;;;20.30;58.02
47761;BME280;33524;55.434;38.520;2023-09-19T08:51:07;100677.22;;;20.15;58.50
47761;BME280;33524;55.434;38.520;2023-09-19T08:53:58;100679.00;;;19.99;59.10
47761;BME280;33524;55.434;38.520;2023-09-19T08:56:33;100683.19;;;20.59;58.06
47761;BME280;33524;55.434;38.520;2023-09-19T08:59:03;100677.66;;;20.52;58.81
47761;BME280;33524;55.434;38.520;2023-09-19T09:01:33;100678.53;;;21.08;58.69
47761;BME280;33524;55.434;38.520;2023-09-19T09:04:01;100677.53;;;20.29;58.27
47761;BME280;33524;55.434;38.520;2023-09-19T09:06:31;100677.28;;;20.96;58.99
47761;BME280;33524;55.434;38.520;2023-09-19T09:09:01;100673.63;;;20.81;59.53
47761;BME280;33524;55.434;38.520;2023-09-19T09:11:33;100657.44;;;21.22;59.00
47761;BME280;33524;55.434;38.520;2023-09-19T09:14:00;100654.03;;;20.96;59.47
47761;BME280;33524;55.434;38.520;2023-09-19T09:16:30;100654.94;;;20.72;58.06
47761;BME280;33524;55.434;38.520;2023-09-19T09:19:00;100647.56;;;21.22;59.60
47761;BME280;33524;55.434;38.520;2023-09-19T09:21:35;100651.66;;;21.41;57.12
47761;BME280;33524;55.434;38.520;2023-09-19T09:24:26;100650.87;;;21.64;58.50
47761;BME280;33524;55.434;38.520;2023-09-19T09:26:59;100648.97;;;21.49;58.44
47761;BME280;33524;55.434;38.520;2023-09-19T09:29:52;100645.66;;;21.70;57.49
47761;BME280;33524;55.434;38.520;2023-09-19T09:32:29;100647.59;;;21.53;59.75
47761;BME280;33524;55.434;38.520;2023-09-19T09:35:07;100634.03;;;21.24;56.45
47761;BME280;33524;55.434;38.520;2023-09-19T09:37:43;100631.25;;;21.94;58.56
47761;BME280;33524;55.434;38.520;2023-09-19T09:40:14;100630.44;;;21.71;56.85
47761;BME280;33524;55.434;38.520;2023-09-19T09:42:44;100622.66;;;22.22;57.51
47761;BME280;33524;55.434;38.520;2023-09-19T09:45:28;100624.16;;;22.25;57.73
47761;BME280;33524;55.434;38.520;2023-09-19T09:48:06;100633.78;;;22.11;57.62
47761;BME280;33524;55.434;38.520;2023-09-19T09:51:04;100623.59;;;22.29;57.32
47761;BME280;33524;55.434;38.520;2023-09-19T09:53:34;100624.00;;;21.57;54.61
47761;BME280;33524;55.434;38.520;2023-09-19T09:56:07;100612.03;;;21.68;57.53
47761;BME280;33524;55.434;38.520;2023-09-19T09:58:37;100615.03;;;22.11;55.91
47761;BME280;33524;55.434;38.520;2023-09-19T10:01:25;100615.12;;;21.80;57.19
47761;BME280;33524;55.434;38.520;2023-09-19T10:04:04;100615.31;;;22.24;56.29
47761;BME280;33524;55.434;38.520;2023-09-19T10:06:41;100613.72;;;21.69;58.02
47761;BME280;33524;55.434;38.520;2023-09-19T10:09:20;100606.59;;;21.30;55.43
47761;BME280;33524;55.434;38.520;2023-09-19T10:12:06;100614.00;;;21.20;56.93
47761;BME280;33524;55.434;38.520;2023-09-19T10:14:44;100602.81;;;21.70;57.30
47761;BME280;33524;55.434;38.520;2023-09-19T10:17:20;100608.69;;;21.89;59.06
47761;BME280;33524;55.434;38.520;2023-09-19T10:19:58;100613.13;;;21.59;58.38
47761;BME280;33524;55.434;38.520;2023-09-19T10:22:48;100611.19;;;21.90;58.78
47761;BME280;33524;55.434;38.520;2023-09-19T10:25:36;100606.44;;;22.01;56.52
47761;BME280;33524;55.434;38.520;2023-09-19T10:28:20;100602.75;;;22.02;55.99
47761;BME280;33524;55.434;38.520;2023-09-19T10:31:03;100602.91;;;22.23;55.35
47761;BME280;33524;55.434;38.520;2023-09-19T10:33:36;100587.19;;;22.20;55.79
47761;BME280;33524;55.434;38.520;2023-09-19T10:36:18;100592.41;;;22.51;56.46
47761;BME280;33524;55.434;38.520;2023-09-19T10:38:56;100590.63;;;22.59;53.12
47761;BME280;33524;55.434;38.520;2023-09-19T10:41:34;100590.41;;;22.90;52.30
47761;BME280;33524;55.434;38.520;2023-09-19T10:44:12;100585.47;;;23.38;50.36
47761;BME280;33524;55.434;38.520;2023-09-19T10:47:02;100579.34;;;22.93;51.79
47761;BME280;33524;55.434;38.520;2023-09-19T10:49:47;100582.00;;;23.66;51.41
47761;BME280;33524;55.434;38.520;2023-09-19T10:52:25;100585.03;;;24.62;49.45
47761;BME280;33524;55.434;38.520;2023-09-19T10:55:19;100587.97;;;24.74;47.49
47761;BME280;33524;55.434;38.520;2023-09-19T10:57:57;100580.91;;;24.31;47.20
47761;BME280;33524;55.434;38.520;2023-09-19T11:01:05;100576.37;;;24.38;48.98
47761;BME280;33524;55.434;38.520;2023-09-19T11:03:46;100570.00;;;25.29;46.57
47761;BME280;33524;55.434;38.520;2023-09-19T11:06:28;100552.00;;;25.56;44.51
47761;BME280;33524;55.434;38.520;2023-09-19T11:09:03;100566.69;;;24.79;46.69
47761;BME280;33524;55.434;38.520;2023-09-19T11:11:53;100568.78;;;25.39;45.57
47761;BME280;33524;55.434;38.520;2023-09-19T11:14:30;100564.19;;;24.77;46.05
47761;BME280;33524;55.434;38.520;2023-09-19T11:30:57;100535.34;;;25.13;48.23
47761;BME280;33524;55.434;38.520;2023-09-19T11:33:44;100528.66;;;24.89;48.27
47761;BME280;33524;55.434;38.520;2023-09-19T11:36:40;100535.22;;;24.73;46.63
47761;BME280;33524;55.434;38.520;2023-09-19T11:39:26;100545.03;;;23.89;47.90
47761;BME280;33524;55.434;38.520;2023-09-19T11:42:41;100546.97;;;24.65;51.34
47761;BME280;33524;55.434;38.520;2023-09-19T11:48:32;100543.91;;;24.05;50.47
47761;BME280;33524;55.434;38.520;2023-09-19T11:51:20;100539.47;;;24.19;50.33
47761;BME280;33524;55.434;38.520;2023-09-19T11:53:57;100538.78;;;23.82;49.15
47761;BME280;33524;55.434;38.520;2023-09-19T11:56:39;100540.03;;;23.80;49.49
47761;BME280;33524;55.434;38.520;2023-09-19T11:59:29;100534.72;;;23.93;53.11
47761;BME280;33524;55.434;38.520;2023-09-19T12:02:07;100534.69;;;23.86;49.69
47761;BME280;33524;55.434;38.520;2023-09-19T12:04:54;100537.66;;;23.48;50.73
47761;BME280;33524;55.434;38.520;2023-09-19T12:07:46;100529.50;;;24.13;49.39
47761;BME280;33524;55.434;38.520;2023-09-19T12:10:20;100527.63;;;24.42;48.78
47761;BME280;33524;55.434;38.520;2023-09-19T12:12:55;100519.72;;;24.82;47.90
47761;BME280;33524;55.434;38.520;2023-09-19T12:15:34;100509.69;;;25.17;46.76
47761;BME280;33524;55.434;38.520;2023-09-19T12:18:08;100509.75;;;25.50;46.43
47761;BME280;33524;55.434;38.520;2023-09-19T12:20:44;100512.84;;;25.87;45.40
47761;BME280;33524;55.434;38.520;2023-09-19T12:23:19;100510.34;;;25.86;45.34
47761;BME280;33524;55.434;38.520;2023-09-19T12:25:50;100503.53;;;25.83;45.27
47761;BME280;33524;55.434;38.520;2023-09-19T12:28:30;100511.41;;;26.05;45.99
47761;BME280;33524;55.434;38.520;2023-09-19T12:31:09;100504.34;;;25.50;45.95
47761;BME280;33524;55.434;38.520;2023-09-19T12:34:02;100504.75;;;24.59;47.48
47761;BME280;33524;55.434;38.520;2023-09-19T12:36:32;100497.50;;;23.62;49.68
47761;BME280;33524;55.434;38.520;2023-09-19T12:39:04;100498.13;;;24.20;49.09
47761;BME280;33524;55.434;38.520;2023-09-19T12:41:39;100494.00;;;25.21;46.68
47761;BME280;33524;55.434;38.520;2023-09-19T12:44:11;100479.50;;;25.22;46.22
47761;BME280;33524;55.434;38.520;2023-09-19T12:46:54;100484.53;;;24.28;48.14
47761;BME280;33524;55.434;38.520;2023-09-19T12:50:14;100487.13;;;23.80;49.83
47761;BME280;33524;55.434;38.520;2023-09-19T12:52:48;100470.91;;;22.81;51.45
47761;BME280;33524;55.434;38.520;2023-09-19T12:55:34;100481.09;;;23.07;52.26
47761;BME280;33524;55.434;38.520;2023-09-19T12:58:20;100468.69;;;23.49;51.03
47761;BME280;33524;55.434;38.520;2023-09-19T13:00:58;100466.50;;;24.64;47.82
47761;BME280;33524;55.434;38.520;2023-09-19T13:03:36;100465.50;;;24.71;48.31
47761;BME280;33524;55.434;38.520;2023-09-19T13:06:12;100456.47;;;25.12;48.30
47761;BME280;33524;55.434;38.520;2023-09-19T13:09:08;100450.94;;;25.21;46.72
47761;BME280;33524;55.434;38.520;2023-09-19T13:11:39;100450.06;;;25.80;45.42
47761;BME280;33524;55.434;38.520;2023-09-19T13:19:50;100449.63;;;27.00;43.04
47761;BME280;33524;55.434;38.520;2023-09-19T13:22:45;100453.19;;;27.26;41.99
47761;BME280;33524;55.434;38.520;2023-09-19T13:25:24;100445.88;;;27.76;40.94
47761;BME280;33524;55.434;38.520;2023-09-19T13:27:59;100449.16;;;28.04;40.72
47761;BME280;33524;55.434;38.520;2023-09-19T13:30:41;100442.78;;;27.98;40.59
47761;BME280;33524;55.434;38.520;2023-09-19T13:33:13;100445.66;;;27.78;40.63
47761;BME280;33524;55.434;38.520;2023-09-19T13:35:58;100441.56;;;27.94;40.97
47761;BME280;33524;55.434;38.520;2023-09-19T13:38:33;100440.75;;;27.25;41.81
47761;BME280;33524;55.434;38.520;2023-09-19T13:41:03;100442.19;;;26.50;42.73
47761;BME280;33524;55.434;38.520;2023-09-19T13:43:33;100435.38;;;25.63;45.56
47761;BME280;33524;55.434;38.520;2023-09-19T13:46:02;100440.53;;;25.17;46.72
47761;BME280;33524;55.434;38.520;2023-09-19T13:48:31;100434.31;;;25.10;46.43
47761;BME280;33524;55.434;38.520;2023-09-19T13:51:03;100426.72;;;25.21;46.80
47761;BME280;33524;55.434;38.520;2023-09-19T13:53:33;100428.56;;;25.27;47.09
47761;BME280;33524;55.434;38.520;2023-09-19T13:56:04;100422.97;;;25.62;46.39
47761;BME280;33524;55.434;38.520;2023-09-19T13:58:34;100421.47;;;25.92;45.58
47761;BME280;33524;55.434;38.520;2023-09-19T14:01:02;100421.62;;;26.11;45.06
47761;BME280;33524;55.434;38.520;2023-09-19T14:03:34;100428.06;;;26.10;44.57
47761;BME280;33524;55.434;38.520;2023-09-19T14:06:04;100423.53;;;25.97;44.75
47761;BME280;33524;55.434;38.520;2023-09-19T14:08:41;100419.38;;;25.88;45.40